Time;durP1;ratioP1;P1;durP2;ratioP2;P2;SDS_P1;SDS_P2;PMS_P1;PMS_P2;Temp;Humidity;BMP_temperature;BMP_pressure;BME280_temperature;BME280_humidity;BME280_pressure;Samples;Min_cycle;Max_cycle;Signal;HPM_P1;HPM_P2
2023/03/14 00:00:05;;;;;;;;;;;;;;;;;;5003957;28;19925;-60
2023/03/14 00:02:31;;;;;;;;;;;;;;;;;;5002716;28;20303;-60
2023/03/14 00:04:56;;;;;;;;;;;11.80;99.90;;;;;;5003361;28;20008;-61
2023/03/14 00:07:24;;;;;;;;;;;11.80;99.90;;;;;;5006356;28;20280;-60
2023/03/14 00:09:50;;;;;;;;;;;11.80;99.90;;;;;;5005104;28;19920;-61
2023/03/14 00:12:15;;;;;;;;;;;11.80;99.90;;;;;;5005056;28;19921;-59
2023/03/14 00:14:42;;;;;;;;;;;11.70;99.90;;;;;;5004251;28;19979;-59
2023/03/14 00:17:07;;;;;;;;;;;11.70;99.90;;;;;;5005618;28;20327;-60
2023/03/14 00:19:33;;;;;;;;;;;11.70;99.90;;;;;;5002075;28;19921;-61
2023/03/14 00:21:58;;;;;;;;;;;11.70;99.90;;;;;;5008899;28;19969;-59
2023/03/14 00:24:24;;;;;;;;;;;11.80;99.90;;;;;;5006967;28;19971;-58
2023/03/14 00:26:49;;;;;;;;;;;11.80;99.90;;;;;;5005038;28;20024;-60
2023/03/14 00:29:15;;;;;;;;;;;11.80;99.90;;;;;;5003849;28;19921;-59
2023/03/14 00:31:40;;;;;;;;;;;11.80;99.90;;;;;;5004287;28;20147;-58
2023/03/14 00:34:06;;;;;;;;;;;11.80;99.90;;;;;;5008218;28;20315;-61
2023/03/14 00:36:31;;;;;;;;;;;11.90;99.90;;;;;;5009200;28;19920;-59
2023/03/14 00:38:57;;;;;;;;;;;11.90;99.90;;;;;;5011228;28;19913;-60
2023/03/14 00:41:22;;;;;;;;;;;11.90;99.90;;;;;;5012942;28;20484;-59
2023/03/14 00:43:48;;;;;;;;;;;12.00;99.90;;;;;;5009370;28;20290;-58
2023/03/14 00:46:14;;;;;;;;;;;12.10;99.90;;;;;;4991058;28;20419;-60
2023/03/14 00:48:39;;;;;;;;;;;12.10;99.90;;;;;;5010803;28;19975;-60
2023/03/14 00:51:06;;;;;;;;;;;12.10;99.90;;;;;;5010316;28;19913;-61
2023/03/14 00:53:34;;;;;;;;;;;12.20;99.90;;;;;;5011317;28;20012;-60
2023/03/14 00:56:02;;;;;;;;;;;12.10;99.90;;;;;;5010154;28;20363;-58
2023/03/14 00:58:27;;;;;;;;;;;12.20;99.90;;;;;;5012236;28;19920;-58
2023/03/14 01:00:52;;;;;;;;;;;12.20;99.90;;;;;;5008106;28;19929;-60
2023/03/14 01:03:18;;;;;;;;;;;12.20;99.90;;;;;;5007976;28;19921;-59
2023/03/14 01:05:43;;;;;;;;;;;12.20;99.90;;;;;;5010297;28;19922;-59
2023/03/14 01:08:09;;;;;;;;;;;12.20;99.90;;;;;;5008209;28;19992;-59
2023/03/14 01:10:37;;;;;;;;;;;12.20;99.90;;;;;;5007952;28;19915;-59
2023/03/14 01:13:03;;;;;;;;;;;12.20;99.90;;;;;;5009053;28;19921;-59
2023/03/14 01:15:28;;;;;;;;;;;12.20;99.90;;;;;;5009932;28;19921;-59
2023/03/14 01:17:54;;;;;;;;;;;12.10;99.90;;;;;;5010840;28;19960;-58
2023/03/14 01:20:20;;;;;;;;;;;;;;;;;;5009693;28;19983;-56
2023/03/14 01:22:45;;;;;;;;;;;12.00;99.90;;;;;;5009182;28;20001;-58
2023/03/14 01:25:11;;;;;;;;;;;;;;;;;;4990048;28;19925;-57
2023/03/14 01:27:37;;;;;;;;;;;;;;;;;;5010714;28;19909;-59
2023/03/14 01:30:03;;;;;;;;;;;;;;;;;;5011149;28;19913;-58
2023/03/14 01:32:29;;;;;;;;;;;;;;;;;;5008590;28;19914;-59
2023/03/14 01:34:54;;;;;;;;;;;11.80;99.90;;;;;;5010947;28;19932;-60
2023/03/14 01:37:20;;;;;;;;;;;11.00;99.90;;;;;;5008969;28;19922;-59
2023/03/14 01:39:48;;;;;;;;;;;10.90;99.90;;;;;;5008761;28;19913;-61
2023/03/14 01:42:14;;;;;;;;;;;10.70;99.90;;;;;;5005184;28;19913;-63
2023/03/14 01:44:49;;;;;;;;;;;10.50;99.90;;;;;;5012185;28;20000;-63
2023/03/14 01:47:14;;;;;;;;;;;10.50;99.90;;;;;;5011007;28;19925;-63
2023/03/14 01:49:39;;;;;;;;;;;10.40;99.90;;;;;;5010273;28;19918;-63
2023/03/14 01:52:07;;;;;;;;;;;10.30;99.90;;;;;;5010287;28;19914;-61
2023/03/14 01:54:40;;;;;;;;;;;10.20;99.90;;;;;;5013929;28;19921;-61
2023/03/14 01:57:08;;;;;;;;;;;10.10;99.90;;;;;;4992394;28;20414;-61
2023/03/14 01:59:34;;;;;;;;;;;10.10;99.90;;;;;;5010288;28;19921;-62
2023/03/14 02:02:00;;;;;;;;;;;10.00;99.90;;;;;;5009706;28;19922;-62
2023/03/14 02:04:28;;;;;;;;;;;10.00;99.90;;;;;;5010651;28;20327;-63
2023/03/14 02:07:07;;;;;;;;;;;9.90;99.90;;;;;;5008290;28;20036;-61
2023/03/14 02:09:32;;;;;;;;;;;9.80;99.90;;;;;;5009563;28;19914;-62
2023/03/14 02:11:58;;;;;;;;;;;9.90;99.90;;;;;;5005541;28;19921;-62
2023/03/14 02:14:29;;;;;;;;;;;9.80;99.90;;;;;;5004980;28;20384;-58
2023/03/14 02:16:55;;;;;;;;;;;9.80;99.90;;;;;;5006207;28;19914;-62
2023/03/14 02:19:26;;;;;;;;;;;9.70;99.90;;;;;;5009941;28;19918;-62
2023/03/14 02:22:01;;;;;;;;;;;9.70;99.90;;;;;;5010980;28;20044;-61
2023/03/14 02:24:31;;;;;;;;;;;9.70;99.90;;;;;;5007137;28;19919;-60
2023/03/14 02:27:13;;;;;;;;;;;9.70;99.90;;;;;;5008511;28;20059;-62
2023/03/14 02:29:43;;;;;;;;;;;9.60;99.90;;;;;;5005524;28;19925;-62
2023/03/14 02:32:08;;;;;;;;;;;9.60;99.90;;;;;;5007666;28;19910;-61
2023/03/14 02:34:34;;;;;;;;;;;9.60;99.90;;;;;;5007795;28;19917;-62
2023/03/14 02:37:00;;;;;;;;;;;9.60;99.90;;;;;;5006213;28;19921;-62
2023/03/14 02:39:31;;;;;;;;;;;9.50;99.90;;;;;;5010231;28;20034;-62
2023/03/14 02:41:56;;;;;;;;;;;9.50;99.90;;;;;;5008396;28;19917;-61
2023/03/14 02:44:22;;;;;;;;;;;9.50;99.90;;;;;;5012570;28;19913;-63
2023/03/14 02:46:47;;;;;;;;;;;9.50;99.90;;;;;;5008109;28;19977;-61
2023/03/14 02:49:14;;;;;;;;;;;9.50;99.90;;;;;;5010240;28;19914;-62
2023/03/14 02:51:39;;;;;;;;;;;;;;;;;;5011950;28;20363;-61
2023/03/14 02:54:05;;;;;;;;;;;;;;;;;;5005776;28;19992;-61
2023/03/14 02:56:31;;;;;;;;;;;;;;;;;;5007886;28;20323;-61
2023/03/14 02:58:57;;;;;;;;;;;;;;;;;;5009179;28;20000;-60
2023/03/14 03:01:23;;;;;;;;;;;;;;;;;;5008485;28;19921;-61
2023/03/14 03:03:49;;;;;;;;;;;;;;;;;;5007478;28;19914;-59
2023/03/14 03:06:15;;;;;;;;;;;;;;;;;;5008768;28;19956;-62
2023/03/14 03:08:40;;;;;;;;;;;9.40;99.90;;;;;;5009863;28;19917;-61
2023/03/14 03:11:06;;;;;;;;;;;9.40;99.90;;;;;;5007388;28;19921;-62
2023/03/14 03:13:32;;;;;;;;;;;;;;;;;;5007885;28;19917;-62
2023/03/14 03:15:58;;;;;;;;;;;;;;;;;;5007443;28;19925;-62
2023/03/14 03:18:23;;;;;;;;;;;9.40;99.90;;;;;;5007169;28;20004;-61
2023/03/14 03:20:49;;;;;;;;;;;9.60;99.90;;;;;;5010105;28;20395;-61
2023/03/14 03:23:14;;;;;;;;;;;9.70;99.90;;;;;;5008733;28;19909;-61
2023/03/14 03:25:40;;;;;;;;;;;9.90;99.90;;;;;;5007354;28;19921;-62
2023/03/14 03:28:07;;;;;;;;;;;9.80;99.90;;;;;;5009032;28;20343;-61
2023/03/14 03:30:40;;;;;;;;;;;9.90;99.90;;;;;;5009653;28;19913;-60
2023/03/14 03:33:05;;;;;;;;;;;9.90;99.90;;;;;;5007321;28;19913;-62
2023/03/14 03:35:31;;;;;;;;;;;9.90;99.90;;;;;;5006281;28;19913;-61
2023/03/14 03:37:56;;;;;;;;;;;9.90;99.90;;;;;;5006515;28;19914;-62
2023/03/14 03:40:22;;;;;;;;;;;9.90;99.90;;;;;;5007759;28;19921;-62
2023/03/14 03:42:47;;;;;;;;;;;;;;;;;;5002609;28;19960;-61
2023/03/14 03:45:13;;;;;;;;;;;10.00;99.90;;;;;;5002143;28;19913;-61
2023/03/14 03:47:38;;;;;;;;;;;10.20;99.90;;;;;;5006212;28;19913;-59
2023/03/14 03:50:04;;;;;;;;;;;10.30;99.90;;;;;;5007947;28;20332;-62
2023/03/14 03:52:29;;;;;;;;;;;10.30;99.90;;;;;;5004693;28;19943;-62
2023/03/14 03:54:55;;;;;;;;;;;10.30;99.90;;;;;;5010121;28;19918;-61
2023/03/14 03:57:20;;;;;;;;;;;10.40;99.90;;;;;;5002166;28;19921;-61
2023/03/14 03:59:46;;;;;;;;;;;10.50;99.90;;;;;;5005251;28;20591;-61
2023/03/14 04:02:11;;;;;;;;;;;10.40;99.90;;;;;;5005317;28;19917;-61
2023/03/14 04:04:38;;;;;;;;;;;10.40;99.90;;;;;;5007871;28;19972;-62
2023/03/14 04:07:04;;;;;;;;;;;10.50;99.90;;;;;;5006458;28;19917;-61
2023/03/14 04:09:30;;;;;;;;;;;10.50;99.90;;;;;;5001504;28;20379;-62
2023/03/14 04:11:55;;;;;;;;;;;10.50;99.90;;;;;;5007169;28;19917;-61
2023/03/14 04:14:21;;;;;;;;;;;10.50;99.90;;;;;;5005759;28;20375;-63
2023/03/14 04:16:47;;;;;;;;;;;10.50;99.90;;;;;;5002526;28;20326;-61
2023/03/14 04:19:12;;;;;;;;;;;10.40;99.90;;;;;;5005254;28;19917;-62
2023/03/14 04:21:40;;;;;;;;;;;10.30;99.90;;;;;;5003828;28;20004;-62
2023/03/14 04:24:06;;;;;;;;;;;10.30;99.90;;;;;;5007672;28;20330;-62
2023/03/14 04:26:31;;;;;;;;;;;;;;;;;;5003877;28;19925;-61
2023/03/14 04:28:57;;;;;;;;;;;10.30;99.90;;;;;;5007661;28;20299;-62
2023/03/14 04:31:23;;;;;;;;;;;10.20;99.90;;;;;;5005920;28;19949;-63
2023/03/14 04:33:48;;;;;;;;;;;10.20;99.90;;;;;;5000048;28;20395;-61
2023/03/14 04:36:14;;;;;;;;;;;10.20;99.90;;;;;;5008290;28;19921;-62
2023/03/14 04:38:40;;;;;;;;;;;10.20;99.90;;;;;;5004162;28;20453;-60
2023/03/14 04:41:06;;;;;;;;;;;10.10;99.90;;;;;;5007289;28;19922;-62
2023/03/14 04:43:31;;;;;;;;;;;10.20;99.90;;;;;;5002743;28;20283;-62
2023/03/14 04:45:57;;;;;;;;;;;10.20;99.90;;;;;;5006361;28;19925;-61
2023/03/14 04:48:23;;;;;;;;;;;10.20;99.90;;;;;;5004746;28;19929;-62
2023/03/14 04:50:49;;;;;;;;;;;10.10;99.90;;;;;;5007026;28;19924;-62
2023/03/14 04:53:15;;;;;;;;;;;10.10;99.90;;;;;;5006032;28;19914;-62
2023/03/14 04:55:40;;;;;;;;;;;10.10;99.90;;;;;;5003427;28;19944;-59
2023/03/14 04:58:06;;;;;;;;;;;10.00;99.90;;;;;;5004699;28;19913;-61
2023/03/14 05:00:31;;;;;;;;;;;10.00;99.90;;;;;;5006199;28;19913;-61
2023/03/14 05:02:57;;;;;;;;;;;10.00;99.90;;;;;;5004002;28;20514;-61
2023/03/14 05:05:23;;;;;;;;;;;10.00;99.90;;;;;;5006393;28;19924;-60
2023/03/14 05:07:48;;;;;;;;;;;9.90;99.90;;;;;;5009117;28;19940;-62
2023/03/14 05:10:14;;;;;;;;;;;9.90;99.90;;;;;;5005486;28;19932;-60
2023/03/14 05:12:39;;;;;;;;;;;10.00;99.90;;;;;;5005031;28;19913;-62
2023/03/14 05:15:05;;;;;;;;;;;10.10;99.90;;;;;;5006272;28;19917;-61
2023/03/14 05:17:32;;;;;;;;;;;10.20;99.90;;;;;;5005841;28;20306;-62
2023/03/14 05:19:57;;;;;;;;;;;10.10;99.90;;;;;;5009697;28;19913;-60
2023/03/14 05:22:23;;;;;;;;;;;10.10;99.90;;;;;;5003222;28;20547;-59
2023/03/14 05:24:48;;;;;;;;;;;10.10;99.90;;;;;;5002312;28;20347;-60
2023/03/14 05:27:13;;;;;;;;;;;10.10;99.90;;;;;;5006110;28;19918;-58
2023/03/14 05:29:39;;;;;;;;;;;10.10;99.90;;;;;;5007879;28;19917;-61
2023/03/14 05:32:04;;;;;;;;;;;10.20;99.90;;;;;;5008775;28;19996;-62
2023/03/14 05:34:30;;;;;;;;;;;10.10;99.90;;;;;;5009488;28;19936;-62
2023/03/14 05:36:56;;;;;;;;;;;10.20;99.90;;;;;;5010592;28;19981;-62
2023/03/14 05:39:21;;;;;;;;;;;10.10;99.90;;;;;;5005451;28;20376;-59
2023/03/14 05:41:47;;;;;;;;;;;10.20;99.90;;;;;;5008259;28;20411;-61
2023/03/14 05:44:12;;;;;;;;;;;10.20;99.90;;;;;;5006553;28;19937;-61
2023/03/14 05:46:37;;;;;;;;;;;10.10;99.90;;;;;;5006974;28;19921;-62
2023/03/14 05:49:03;;;;;;;;;;;10.20;99.90;;;;;;5006213;28;19925;-61
2023/03/14 05:51:28;;;;;;;;;;;10.20;99.90;;;;;;5008106;28;19965;-60
2023/03/14 05:53:54;;;;;;;;;;;10.20;99.90;;;;;;5002361;28;19940;-60
2023/03/14 05:56:19;;;;;;;;;;;10.30;99.90;;;;;;5008383;28;20658;-61
2023/03/14 05:58:45;;;;;;;;;;;10.20;99.90;;;;;;5007358;28;20735;-61
2023/03/14 06:01:10;;;;;;;;;;;10.20;99.90;;;;;;5002079;28;20358;-61
2023/03/14 06:03:35;;;;;;;;;;;10.20;99.90;;;;;;5010288;28;19921;-63
2023/03/14 06:06:01;;;;;;;;;;;10.30;99.90;;;;;;5008655;28;20692;-60
2023/03/14 06:08:27;;;;;;;;;;;10.20;99.90;;;;;;5006432;28;20333;-63
2023/03/14 06:10:53;;;;;;;;;;;10.30;99.90;;;;;;5002749;28;19917;-61
2023/03/14 06:13:18;;;;;;;;;;;10.20;99.90;;;;;;5015210;28;19971;-62
2023/03/14 06:15:44;;;;;;;;;;;10.20;99.90;;;;;;5011230;28;20008;-62
2023/03/14 06:18:09;;;;;;;;;;;10.20;99.90;;;;;;5010420;28;20012;-62
2023/03/14 06:20:36;;;;;;;;;;;10.20;99.90;;;;;;5011125;28;19920;-61
2023/03/14 06:23:01;;;;;;;;;;;10.20;99.90;;;;;;5007799;28;20013;-59
2023/03/14 06:25:26;;;;;;;;;;;10.20;99.90;;;;;;4988976;28;19996;-61
2023/03/14 06:27:52;;;;;;;;;;;10.20;99.90;;;;;;5008466;28;19914;-60
2023/03/14 06:30:17;;;;;;;;;;;10.10;99.90;;;;;;5008587;28;19921;-61
2023/03/14 06:32:43;;;;;;;;;;;10.10;99.90;;;;;;5002969;28;19969;-62
2023/03/14 06:35:08;;;;;;;;;;;10.20;99.90;;;;;;5003271;28;19967;-60
2023/03/14 06:37:34;;;;;;;;;;;10.20;99.90;;;;;;4999269;28;19957;-62
2023/03/14 06:39:59;;;;;;;;;;;10.20;99.90;;;;;;5010896;28;19917;-59
2023/03/14 06:42:25;;;;;;;;;;;10.20;99.90;;;;;;5012676;28;19988;-61
2023/03/14 06:44:50;;;;;;;;;;;10.40;99.90;;;;;;5010487;28;19921;-61
2023/03/14 06:47:16;;;;;;;;;;;10.40;99.90;;;;;;5010976;28;20056;-61
2023/03/14 06:49:41;;;;;;;;;;;10.40;99.90;;;;;;5010812;28;19921;-62
2023/03/14 06:52:07;;;;;;;;;;;10.50;99.90;;;;;;5011084;28;19964;-61
2023/03/14 06:54:32;;;;;;;;;;;10.50;99.90;;;;;;5012125;28;19932;-58
2023/03/14 06:56:57;;;;;;;;;;;10.60;99.90;;;;;;5005375;28;20386;-61
2023/03/14 06:59:23;;;;;;;;;;;10.70;99.90;;;;;;5010759;28;20375;-61
2023/03/14 07:01:50;;;;;;;;;;;10.70;99.90;;;;;;5007441;28;20477;-59
2023/03/14 07:04:16;;;;;;;;;;;10.70;99.90;;;;;;5008437;28;19967;-61
2023/03/14 07:06:44;;;;;;;;;;;10.70;99.90;;;;;;5009156;28;19913;-62
2023/03/14 07:09:10;;;;;;;;;;;10.80;99.90;;;;;;5011037;28;20418;-60
2023/03/14 07:11:35;;;;;;;;;;;10.80;99.90;;;;;;5009766;28;19925;-59
2023/03/14 07:14:01;;;;;;;;;;;10.90;99.90;;;;;;5010406;28;20012;-61
2023/03/14 07:16:28;;;;;;;;;;;10.90;99.90;;;;;;5007305;28;19953;-60
2023/03/14 07:18:54;;;;;;;;;;;10.90;99.90;;;;;;5010439;28;19929;-62
2023/03/14 07:21:19;;;;;;;;;;;11.00;99.90;;;;;;5004157;28;20319;-60
2023/03/14 07:23:45;;;;;;;;;;;11.00;99.90;;;;;;5004892;28;19944;-61
2023/03/14 07:26:11;;;;;;;;;;;;;;;;;;5006210;28;19925;-61
2023/03/14 07:28:36;;;;;;;;;;;11.10;99.90;;;;;;5010873;28;20421;-61
2023/03/14 07:31:01;;;;;;;;;;;11.20;99.90;;;;;;5007550;28;19976;-60
2023/03/14 07:33:27;;;;;;;;;;;11.20;99.90;;;;;;5010935;28;20376;-60
2023/03/14 07:35:53;;;;;;;;;;;11.20;99.90;;;;;;5008751;28;19918;-61
2023/03/14 07:38:18;;;;;;;;;;;11.20;99.90;;;;;;5006010;28;20395;-60
2023/03/14 07:40:43;;;;;;;;;;;11.30;99.90;;;;;;5004381;28;19955;-61
2023/03/14 07:43:09;;;;;;;;;;;11.40;99.90;;;;;;5000787;28;19913;-62
2023/03/14 07:45:34;;;;;;;;;;;11.40;99.90;;;;;;4997291;28;19909;-58
2023/03/14 07:48:01;;;;;;;;;;;11.50;99.90;;;;;;5000574;28;19917;-58
2023/03/14 07:50:27;;;;;;;;;;;11.50;99.90;;;;;;4997588;28;19913;-55
2023/03/14 07:52:53;;;;;;;;;;;11.60;99.90;;;;;;4999928;28;21612;-55
2023/03/14 07:55:19;;;;;;;;;;;11.70;99.90;;;;;;5003166;28;19909;-54
2023/03/14 07:57:44;;;;;;;;;;;11.70;99.90;;;;;;5001604;28;19960;-60
2023/03/14 08:00:10;;;;;;;;;;;11.70;99.90;;;;;;5010585;28;19976;-55
2023/03/14 08:02:36;;;;;;;;;;;11.80;99.90;;;;;;4998506;28;19914;-58
2023/03/14 08:05:02;;;;;;;;;;;11.90;99.90;;;;;;5005728;28;19916;-58
2023/03/14 08:07:28;;;;;;;;;;;11.90;99.90;;;;;;5009824;28;19940;-57
2023/03/14 08:09:53;;;;;;;;;;;11.90;99.90;;;;;;5005159;28;20418;-55
2023/03/14 08:12:19;;;;;;;;;;;11.90;99.90;;;;;;5009872;28;19936;-58
2023/03/14 08:14:44;;;;;;;;;;;11.90;99.90;;;;;;5006979;28;19932;-54
2023/03/14 08:17:09;;;;;;;;;;;11.90;99.90;;;;;;5003614;28;20047;-57
2023/03/14 08:19:35;;;;;;;;;;;11.90;99.90;;;;;;5006921;28;19914;-56
2023/03/14 08:22:00;;;;;;;;;;;11.90;99.90;;;;;;4999695;28;19985;-58
2023/03/14 08:24:26;;;;;;;;;;;12.00;99.90;;;;;;5004754;28;19985;-56
2023/03/14 08:26:51;;;;;;;;;;;12.00;99.90;;;;;;4999976;28;19918;-58
2023/03/14 08:29:17;;;;;;;;;;;12.10;99.90;;;;;;5005352;28;19967;-56
2023/03/14 08:31:42;;;;;;;;;;;12.20;99.90;;;;;;5007663;28;19914;-58
2023/03/14 08:34:08;;;;;;;;;;;12.20;99.90;;;;;;5007792;28;19936;-59
2023/03/14 08:36:33;;;;;;;;;;;12.20;99.90;;;;;;5005530;28;19921;-54
2023/03/14 08:38:59;;;;;;;;;;;12.20;99.90;;;;;;5007522;28;19913;-57
2023/03/14 08:41:24;;;;;;;;;;;12.20;99.90;;;;;;5005432;28;20834;-58
2023/03/14 08:43:49;;;;;;;;;;;12.20;99.90;;;;;;5010862;28;19910;-58
2023/03/14 08:46:15;;;;;;;;;;;12.20;99.90;;;;;;5010961;28;19983;-59
2023/03/14 08:48:40;;;;;;;;;;;12.20;99.90;;;;;;5011555;28;19922;-58
2023/03/14 08:51:06;;;;;;;;;;;12.20;99.90;;;;;;5010998;28;19921;-59
2023/03/14 08:53:31;;;;;;;;;;;12.20;99.90;;;;;;5005572;28;19964;-58
2023/03/14 08:55:57;;;;;;;;;;;12.20;99.90;;;;;;5007781;28;19921;-58
2023/03/14 08:58:23;;;;;;;;;;;12.10;99.90;;;;;;5008392;28;19913;-59
2023/03/14 09:00:49;;;;;;;;;;;12.10;99.90;;;;;;5008001;28;19917;-57
2023/03/14 09:03:14;;;;;;;;;;;12.00;99.90;;;;;;5014582;28;19932;-59
2023/03/14 09:05:40;;;;;;;;;;;11.90;99.90;;;;;;5014857;28;19948;-57
2023/03/14 09:08:05;;;;;;;;;;;11.80;99.90;;;;;;5004591;28;19914;-58
2023/03/14 09:10:31;;;;;;;;;;;11.80;99.90;;;;;;5010886;28;19917;-56
2023/03/14 09:12:58;;;;;;;;;;;11.70;99.90;;;;;;5014562;28;20455;-57
2023/03/14 09:15:23;;;;;;;;;;;11.70;99.90;;;;;;5013889;28;20010;-56
2023/03/14 09:17:49;;;;;;;;;;;11.70;99.90;;;;;;5008860;28;19992;-59
2023/03/14 09:20:14;;;;;;;;;;;11.60;99.90;;;;;;5008369;28;19913;-58
2023/03/14 09:22:40;;;;;;;;;;;11.40;99.90;;;;;;5013180;28;20280;-60
2023/03/14 09:25:06;;;;;;;;;;;11.30;99.90;;;;;;5008144;28;19929;-60
2023/03/14 09:27:31;;;;;;;;;;;11.30;99.90;;;;;;5011865;28;19918;-61
2023/03/14 09:29:57;;;;;;;;;;;11.20;99.90;;;;;;5008732;28;20292;-55
2023/03/14 09:32:22;;;;;;;;;;;11.20;99.90;;;;;;5014254;28;20292;-59
2023/03/14 09:34:48;;;;;;;;;;;11.10;99.90;;;;;;5014103;28;20051;-60
2023/03/14 09:37:15;;;;;;;;;;;11.00;99.90;;;;;;5013500;28;19917;-59
2023/03/14 09:39:40;;;;;;;;;;;11.00;99.90;;;;;;5011295;28;19917;-61
2023/03/14 09:42:07;;;;;;;;;;;10.90;99.90;;;;;;5008261;28;20395;-57
2023/03/14 09:44:33;;;;;;;;;;;;;;;;;;5010400;28;19945;-60
2023/03/14 09:47:06;;;;;;;;;;;10.00;99.90;;;;;;5014195;28;19975;-61
2023/03/14 09:49:33;;;;;;;;;;;9.90;99.90;;;;;;5014158;28;19945;-60
2023/03/14 09:52:00;;;;;;;;;;;9.60;99.90;;;;;;5012964;28;19936;-61
2023/03/14 09:54:40;;;;;;;;;;;9.40;99.90;;;;;;5011572;28;19914;-60
2023/03/14 09:57:06;;;;;;;;;;;9.00;99.90;;;;;;5008915;28;19910;-59
2023/03/14 09:59:33;;;;;;;;;;;9.00;99.90;;;;;;5014176;28;20040;-58
2023/03/14 10:02:11;;;;;;;;;;;8.90;99.90;;;;;;5013888;28;19914;-59
2023/03/14 10:04:41;;;;;;;;;;;8.80;99.90;;;;;;5012058;28;19983;-59
2023/03/14 10:07:10;;;;;;;;;;;8.80;99.90;;;;;;5012889;28;19923;-60
2023/03/14 10:09:36;;;;;;;;;;;8.80;99.90;;;;;;5010437;28;19910;-58
2023/03/14 10:12:02;;;;;;;;;;;8.70;99.90;;;;;;5012597;28;19936;-59
2023/03/14 10:14:28;;;;;;;;;;;8.60;99.90;;;;;;5007734;28;19909;-59
2023/03/14 10:16:54;;;;;;;;;;;8.60;99.90;;;;;;5013561;28;19917;-59
2023/03/14 10:19:19;;;;;;;;;;;8.50;99.90;;;;;;5013603;28;20264;-61
2023/03/14 10:21:52;;;;;;;;;;;8.50;99.90;;;;;;5010765;28;19914;-61
2023/03/14 10:24:18;;;;;;;;;;;8.50;99.90;;;;;;5010198;28;19924;-59
2023/03/14 10:26:47;;;;;;;;;;;8.40;99.90;;;;;;5013315;28;19917;-60
2023/03/14 10:29:12;;;;;;;;;;;8.40;99.90;;;;;;5013056;28;19925;-56
2023/03/14 10:31:49;;;;;;;;;;;8.30;99.90;;;;;;5012951;28;19917;-60
2023/03/14 10:34:16;;;;;;;;;;;8.30;99.90;;;;;;5012797;28;20425;-60
2023/03/14 10:36:42;;;;;;;;;;;8.20;99.90;;;;;;5011666;28;19913;-61
2023/03/14 10:39:25;;;;;;;;;;;8.20;99.90;;;;;;5007644;28;19932;-58
2023/03/14 10:42:05;;;;;;;;;;;8.20;99.90;;;;;;5012904;28;20379;-61
2023/03/14 10:44:30;;;;;;;;;;;8.20;99.90;;;;;;5012441;28;19956;-61
2023/03/14 10:46:58;;;;;;;;;;;8.20;99.90;;;;;;5012879;28;19921;-61
2023/03/14 10:49:29;;;;;;;;;;;8.20;99.90;;;;;;5010168;28;19920;-59
2023/03/14 10:51:54;;;;;;;;;;;8.10;99.90;;;;;;5006331;28;20334;-59
2023/03/14 10:54:21;;;;;;;;;;;8.20;99.90;;;;;;5012423;28;20005;-56
2023/03/14 10:56:55;;;;;;;;;;;8.10;99.90;;;;;;5012889;28;19917;-59
2023/03/14 10:59:21;;;;;;;;;;;8.10;99.90;;;;;;5012812;28;19913;-58
2023/03/14 11:01:52;;;;;;;;;;;8.00;99.90;;;;;;5012641;28;19924;-58
2023/03/14 11:04:44;;;;;;;;;;;8.10;99.90;;;;;;5010529;28;19913;-60
2023/03/14 11:07:24;;;;;;;;;;;8.10;99.90;;;;;;5000962;28;19921;-60
2023/03/14 11:09:54;;;;;;;;;;;8.10;99.90;;;;;;5012412;28;20347;-61
2023/03/14 11:12:23;;;;;;;;;;;8.10;99.90;;;;;;5012356;28;19909;-59
2023/03/14 11:14:54;;;;;;;;;;;8.20;99.90;;;;;;5010778;28;19936;-59
2023/03/14 11:17:37;;;;;;;;;;;8.30;99.90;;;;;;5015741;28;20279;-60
2023/03/14 11:20:21;;;;;;;;;;;8.30;99.90;;;;;;5018021;28;19991;-61
2023/03/14 11:22:51;;;;;;;;;;;8.30;99.90;;;;;;5012061;28;19918;-56
2023/03/14 11:25:30;;;;;;;;;;;8.30;99.90;;;;;;5008845;28;20007;-57
2023/03/14 11:27:59;;;;;;;;;;;8.40;99.90;;;;;;5012473;28;19924;-58
2023/03/14 11:30:44;;;;;;;;;;;8.40;99.90;;;;;;5012444;28;20281;-59
2023/03/14 11:33:33;;;;;;;;;;;8.40;99.90;;;;;;5012002;28;19996;-58
2023/03/14 11:35:59;;;;;;;;;;;8.40;99.90;;;;;;5009047;28;19932;-60
2023/03/14 11:38:30;;;;;;;;;;;8.50;99.90;;;;;;5006068;28;19922;-58
2023/03/14 11:40:57;;;;;;;;;;;8.60;99.90;;;;;;5003261;28;19914;-60
2023/03/14 11:43:28;;;;;;;;;;;8.60;99.90;;;;;;5009348;28;19921;-59
2023/03/14 11:45:57;;;;;;;;;;;8.60;99.90;;;;;;5011848;28;20290;-60
2023/03/14 11:48:31;;;;;;;;;;;8.60;99.90;;;;;;5011691;28;19917;-59
2023/03/14 11:50:59;;;;;;;;;;;8.10;99.90;;;;;;5007906;28;19939;-61
2023/03/14 11:53:39;;;;;;;;;;;7.40;99.90;;;;;;5009724;28;19918;-57
2023/03/14 11:56:11;;;;;;;;;;;6.90;99.90;;;;;;5011803;28;19960;-59
2023/03/14 11:58:37;;;;;;;;;;;6.70;99.90;;;;;;5011946;28;19963;-61
2023/03/14 12:01:08;;;;;;;;;;;6.80;99.90;;;;;;5011288;28;19913;-55
2023/03/14 12:03:34;;;;;;;;;;;6.80;99.90;;;;;;5010357;28;20450;-58
2023/03/14 12:05:59;;;;;;;;;;;6.90;99.90;;;;;;5006499;28;20004;-60
2023/03/14 12:08:43;;;;;;;;;;;7.10;99.90;;;;;;5011149;28;20000;-60
2023/03/14 12:11:09;;;;;;;;;;;;;;;;;;5011768;28;19921;-58
2023/03/14 12:13:35;;;;;;;;;;;;;;;;;;5011213;28;19913;-60
2023/03/14 12:16:01;;;;;;;;;;;;;;;;;;5011761;28;20127;-60
2023/03/14 12:18:27;;;;;;;;;;;;;;;;;;5010676;28;20383;-60
2023/03/14 12:20:52;;;;;;;;;;;;;;;;;;5008958;28;19914;-58
2023/03/14 12:23:20;;;;;;;;;;;;;;;;;;5011273;28;20375;-59
2023/03/14 12:25:45;;;;;;;;;;;7.10;99.90;;;;;;5011551;28;19964;-57
2023/03/14 12:28:21;;;;;;;;;;;7.70;99.90;;;;;;5007261;28;19925;-57
2023/03/14 12:30:47;;;;;;;;;;;7.60;99.90;;;;;;5002438;28;19937;-60
2023/03/14 12:33:20;;;;;;;;;;;7.60;99.90;;;;;;5010376;28;19933;-59
2023/03/14 12:35:48;;;;;;;;;;;7.50;99.90;;;;;;5014847;28;19913;-57
2023/03/14 12:38:31;;;;;;;;;;;7.40;99.90;;;;;;5012359;28;19960;-58
2023/03/14 12:41:05;;;;;;;;;;;7.40;99.90;;;;;;5010580;28;19914;-59
2023/03/14 12:43:33;;;;;;;;;;;7.40;99.90;;;;;;5013511;28;20453;-56
2023/03/14 12:46:04;;;;;;;;;;;7.20;99.90;;;;;;5011556;28;19917;-59
2023/03/14 12:48:29;;;;;;;;;;;7.10;99.90;;;;;;5011127;28;19962;-59
2023/03/14 12:51:00;;;;;;;;;;;7.10;99.90;;;;;;5012808;28;19935;-58
2023/03/14 12:53:44;;;;;;;;;;;7.10;99.90;;;;;;5008480;28;19913;-58
2023/03/14 12:56:22;;;;;;;;;;;7.10;99.90;;;;;;5014284;28;19914;-60
2023/03/14 12:58:54;;;;;;;;;;;7.00;99.90;;;;;;5014828;28;19920;-57
2023/03/14 13:01:20;;;;;;;;;;;7.10;99.90;;;;;;5014592;28;19929;-56
2023/03/14 13:03:53;;;;;;;;;;;7.00;99.90;;;;;;5014265;28;19920;-58
2023/03/14 13:06:38;;;;;;;;;;;7.10;99.90;;;;;;5017415;28;19924;-56
2023/03/14 13:09:22;;;;;;;;;;;7.00;99.90;;;;;;5014013;28;20414;-55
2023/03/14 13:11:47;;;;;;;;;;;6.90;99.90;;;;;;5011498;28;20082;-58
2023/03/14 13:14:13;;;;;;;;;;;6.90;99.90;;;;;;5015682;28;19925;-57
2023/03/14 13:16:39;;;;;;;;;;;6.90;99.90;;;;;;5010505;28;19914;-56
2023/03/14 13:19:11;;;;;;;;;;;6.90;99.90;;;;;;5016914;28;20375;-57
2023/03/14 13:21:37;;;;;;;;;;;6.90;99.90;;;;;;5012625;28;19925;-56
2023/03/14 13:24:04;;;;;;;;;;;6.90;99.90;;;;;;5015614;28;19917;-59
2023/03/14 13:26:42;;;;;;;;;;;6.90;99.90;;;;;;5013600;28;19926;-59
2023/03/14 13:29:16;;;;;;;;;;;7.00;99.90;;;;;;5010700;28;19985;-57
2023/03/14 13:31:46;;;;;;;;;;;7.00;99.90;;;;;;5012671;28;19925;-59
2023/03/14 13:34:11;;;;;;;;;;;7.10;99.90;;;;;;5011571;28;19917;-56
2023/03/14 13:36:37;;;;;;;;;;;7.20;99.90;;;;;;5014046;28;19940;-56
2023/03/14 13:39:06;;;;;;;;;;;7.20;99.90;;;;;;5013079;28;19933;-60
2023/03/14 13:41:31;;;;;;;;;;;7.20;99.90;;;;;;5009322;28;19925;-58
2023/03/14 13:44:02;;;;;;;;;;;7.20;99.90;;;;;;5010992;28;19913;-57
2023/03/14 13:46:28;;;;;;;;;;;7.10;99.90;;;;;;5008477;28;20343;-60
2023/03/14 13:48:58;;;;;;;;;;;6.90;99.90;;;;;;5007408;28;19914;-55
2023/03/14 13:51:27;;;;;;;;;;;6.70;99.90;;;;;;5011077;28;20338;-59
2023/03/14 13:53:54;;;;;;;;;;;6.50;99.90;;;;;;5010077;28;19913;-57
2023/03/14 13:56:20;;;;;;;;;;;6.50;99.90;;;;;;5011209;28;20363;-60
2023/03/14 13:58:46;;;;;;;;;;;6.50;99.90;;;;;;5008704;28;19922;-58
2023/03/14 14:01:19;;;;;;;;;;;6.40;99.90;;;;;;5012021;28;19936;-58
2023/03/14 14:03:47;;;;;;;;;;;6.40;99.90;;;;;;4987857;28;19917;-59
2023/03/14 14:06:29;;;;;;;;;;;6.40;99.90;;;;;;5008500;28;20016;-61
2023/03/14 14:08:56;;;;;;;;;;;6.40;99.90;;;;;;5024815;28;19917;-60
2023/03/14 14:11:31;;;;;;;;;;;6.40;99.90;;;;;;5017851;28;19914;-58
2023/03/14 14:13:57;;;;;;;;;;;6.50;99.90;;;;;;4989678;28;20284;-55
2023/03/14 14:16:24;;;;;;;;;;;6.60;99.90;;;;;;5007096;28;19923;-57
2023/03/14 14:18:50;;;;;;;;;;;6.60;99.90;;;;;;5006069;28;19917;-59
2023/03/14 14:21:16;;;;;;;;;;;6.70;99.90;;;;;;5005598;28;19914;-58
2023/03/14 14:23:42;;;;;;;;;;;6.70;99.90;;;;;;5006478;28;19976;-57
2023/03/14 14:26:07;;;;;;;;;;;6.80;99.90;;;;;;4998054;28;19924;-57
2023/03/14 14:28:34;;;;;;;;;;;6.80;99.90;;;;;;5007928;28;19968;-57
2023/03/14 14:31:07;;;;;;;;;;;6.80;99.90;;;;;;5003289;28;20406;-53